OYATS EDFM-ZZZZ
Flight info
| Callsign | OYATS |
|---|---|
| Flight time | N/A |
| Altitude | 1500 |
| Route | DCT |
| Aircraft | C172/L-SFG/C |
Departure
| Time | 2026-04-23 15:02 |
|---|---|
| Airport | Mannheim-City Airport (EDFM) |
Arrival
| Time | N/A |
|---|---|
| Airport | ZZZZ |
| Time | Latitude | Longitude | Altitude | Speed | Heading |
|---|---|---|---|---|---|
| 2026-04-23 14:49 | 49.47512 | 8.52093 | 310 ft | 0 kts | 184° |
| 2026-04-23 14:58 | 49.47497 | 8.52114 | 310 ft | 6 kts | 103° |
| 2026-04-23 14:58 | 49.47492 | 8.52159 | 310 ft | 3 kts | 112° |
| 2026-04-23 14:58 | 49.47465 | 8.52166 | 310 ft | 5 kts | 182° |
| 2026-04-23 14:58 | 49.47419 | 8.52162 | 310 ft | 6 kts | 185° |
| 2026-04-23 14:59 | 49.47370 | 8.52158 | 310 ft | 6 kts | 183° |
| 2026-04-23 14:59 | 49.47341 | 8.52156 | 310 ft | 0 kts | 184° |
| 2026-04-23 14:59 | 49.47338 | 8.52156 | 310 ft | 0 kts | 183° |
| 2026-04-23 15:00 | 49.47325 | 8.52154 | 310 ft | 6 kts | 184° |
| 2026-04-23 15:00 | 49.47267 | 8.52148 | 310 ft | 8 kts | 184° |
| 2026-04-23 15:00 | 49.47250 | 8.52070 | 310 ft | 7 kts | 275° |
| 2026-04-23 15:01 | 49.47251 | 8.52053 | 309 ft | 0 kts | 276° |
| 2026-04-23 15:01 | 49.47251 | 8.52043 | 310 ft | 10 kts | 271° |
| 2026-04-23 15:01 | 49.47266 | 8.51623 | 310 ft | 64 kts | 274° |
| 2026-04-23 15:01 | 49.47277 | 8.50855 | 405 ft | 72 kts | 269° |
| 2026-04-23 15:02 | 49.47283 | 8.50095 | 535 ft | 72 kts | 269° |
| 2026-04-23 15:02 | 49.47284 | 8.49377 | 710 ft | 68 kts | 273° |
| 2026-04-23 15:02 | 49.47136 | 8.48621 | 804 ft | 83 kts | 221° |
| 2026-04-23 15:02 | 49.46576 | 8.48310 | 940 ft | 86 kts | 197° |
| 2026-04-23 15:03 | 49.46030 | 8.48226 | 1130 ft | 81 kts | 145° |
| 2026-04-23 15:03 | 49.45640 | 8.48983 | 1085 ft | 96 kts | 118° |
| 2026-04-23 15:03 | 49.45380 | 8.49901 | 1156 ft | 92 kts | 104° |
| 2026-04-23 15:03 | 49.45178 | 8.50757 | 1208 ft | 86 kts | 105° |
| 2026-04-23 15:04 | 49.44942 | 8.51687 | 1131 ft | 94 kts | 104° |
| 2026-04-23 15:04 | 49.44823 | 8.52638 | 1157 ft | 89 kts | 94° |
| 2026-04-23 15:04 | 49.44754 | 8.53559 | 1184 ft | 86 kts | 88° |
| 2026-04-23 15:04 | 49.44744 | 8.54460 | 1231 ft | 80 kts | 79° |
| 2026-04-23 15:05 | 49.45067 | 8.55157 | 1123 ft | 84 kts | 32° |
| 2026-04-23 15:05 | 49.45530 | 8.55649 | 1137 ft | 73 kts | 25° |
| 2026-04-23 15:05 | 49.45954 | 8.56008 | 1134 ft | 71 kts | 19° |
| 2026-04-23 15:05 | 49.46418 | 8.56326 | 1142 ft | 71 kts | 18° |
| 2026-04-23 15:06 | 49.46914 | 8.56398 | 1156 ft | 64 kts | 341° |
| 2026-04-23 15:06 | 49.47172 | 8.55836 | 1024 ft | 78 kts | 269° |
| 2026-04-23 15:06 | 49.47082 | 8.55011 | 907 ft | 76 kts | 273° |
| 2026-04-23 15:06 | 49.47114 | 8.54201 | 752 ft | 76 kts | 284° |
| 2026-04-23 15:07 | 49.47195 | 8.53423 | 635 ft | 70 kts | 284° |
| 2026-04-23 15:07 | 49.47223 | 8.52662 | 470 ft | 68 kts | 275° |
| 2026-04-23 15:07 | 49.47247 | 8.51960 | 319 ft | 65 kts | 275° |
| 2026-04-23 15:07 | 49.47279 | 8.51343 | 310 ft | 64 kts | 269° |
| 2026-04-23 15:08 | 49.47296 | 8.50650 | 508 ft | 58 kts | 280° |
| 2026-04-23 15:08 | 49.47354 | 8.49978 | 590 ft | 66 kts | 282° |
| 2026-04-23 15:08 | 49.47436 | 8.49292 | 756 ft | 64 kts | 280° |
| 2026-04-23 15:09 | 49.47164 | 8.48086 | 935 ft | 83 kts | 195° |
| 2026-04-23 15:09 | 49.46603 | 8.48038 | 1024 ft | 83 kts | 171° |
| 2026-04-23 15:09 | 49.46270 | 8.48756 | 1020 ft | 84 kts | 101° |
| 2026-04-23 15:09 | 49.46113 | 8.49629 | 1077 ft | 86 kts | 99° |
| 2026-04-23 15:10 | 49.46014 | 8.50241 | 1078 ft | 90 kts | 96° |
| 2026-04-23 15:10 | 49.45864 | 8.51466 | 1168 ft | 88 kts | 89° |
| 2026-04-23 15:10 | 49.45863 | 8.52376 | 1250 ft | 83 kts | 78° |
| 2026-04-23 15:10 | 49.45902 | 8.53248 | 1346 ft | 77 kts | 77° |
| 2026-04-23 15:11 | 49.45958 | 8.54020 | 1379 ft | 70 kts | 75° |
| 2026-04-23 15:11 | 49.46024 | 8.54750 | 1344 ft | 78 kts | 73° |
| 2026-04-23 15:11 | 49.46145 | 8.55606 | 1358 ft | 73 kts | 59° |
| 2026-04-23 15:11 | 49.46517 | 8.55923 | 1351 ft | 64 kts | 9° |
| 2026-04-23 15:12 | 49.46941 | 8.56042 | 1256 ft | 63 kts | 358° |
| 2026-04-23 15:12 | 49.47185 | 8.55485 | 1074 ft | 80 kts | 257° |
| 2026-04-23 15:12 | 49.47118 | 8.54702 | 914 ft | 71 kts | 286° |
| 2026-04-23 15:12 | 49.47169 | 8.53914 | 702 ft | 78 kts | 281° |
| 2026-04-23 15:13 | 49.47212 | 8.53111 | 551 ft | 75 kts | 280° |
| 2026-04-23 15:13 | 49.47236 | 8.52333 | 411 ft | 72 kts | 279° |
| 2026-04-23 15:13 | 49.47264 | 8.51609 | 310 ft | 58 kts | 279° |
| 2026-04-23 15:13 | 49.47282 | 8.50938 | 371 ft | 71 kts | 273° |
| 2026-04-23 15:14 | 49.47297 | 8.50172 | 557 ft | 72 kts | 273° |
| 2026-04-23 15:14 | 49.47326 | 8.49409 | 712 ft | 73 kts | 274° |
| 2026-04-23 15:14 | 49.47336 | 8.48595 | 847 ft | 78 kts | 267° |
| 2026-04-23 15:14 | 49.46914 | 8.48074 | 942 ft | 93 kts | 187° |
| 2026-04-23 15:15 | 49.46273 | 8.48207 | 1102 ft | 92 kts | 153° |
| 2026-04-23 15:15 | 49.46020 | 8.49092 | 1126 ft | 100 kts | 89° |
| 2026-04-23 15:15 | 49.46000 | 8.50120 | 1276 ft | 92 kts | 81° |
| 2026-04-23 15:15 | 49.45997 | 8.51135 | 1352 ft | 94 kts | 88° |
| 2026-04-23 15:16 | 49.45935 | 8.52075 | 1432 ft | 88 kts | 86° |
| 2026-04-23 15:16 | 49.45896 | 8.53051 | 1408 ft | 91 kts | 86° |
| 2026-04-23 15:16 | 49.45860 | 8.54002 | 1409 ft | 87 kts | 86° |
| 2026-04-23 15:16 | 49.45823 | 8.54922 | 1428 ft | 82 kts | 86° |
| 2026-04-23 15:17 | 49.45788 | 8.55769 | 1377 ft | 79 kts | 82° |
| 2026-04-23 15:17 | 49.45991 | 8.56494 | 1243 ft | 79 kts | 27° |
| 2026-04-23 15:17 | 49.46538 | 8.56675 | 1129 ft | 78 kts | 0° |
| 2026-04-23 15:17 | 49.46958 | 8.56284 | 1046 ft | 83 kts | 302° |
| 2026-04-23 15:18 | 49.47103 | 8.55384 | 993 ft | 86 kts | 277° |
| 2026-04-23 15:18 | 49.47136 | 8.54463 | 793 ft | 87 kts | 282° |
| 2026-04-23 15:18 | 49.47188 | 8.53546 | 604 ft | 84 kts | 278° |
| 2026-04-23 15:18 | 49.47221 | 8.52683 | 481 ft | 74 kts | 277° |
| 2026-04-23 15:19 | 49.47255 | 8.51925 | 323 ft | 70 kts | 273° |
| 2026-04-23 15:19 | 49.47271 | 8.51212 | 310 ft | 78 kts | 276° |
| 2026-04-23 15:19 | 49.47321 | 8.50397 | 532 ft | 76 kts | 282° |
| 2026-04-23 15:19 | 49.47365 | 8.49646 | 768 ft | 71 kts | 274° |
| 2026-04-23 15:20 | 49.47364 | 8.48854 | 870 ft | 76 kts | 272° |
| 2026-04-23 15:20 | 49.47304 | 8.48043 | 969 ft | 84 kts | 247° |
| 2026-04-23 15:20 | 49.46718 | 8.47790 | 1002 ft | 97 kts | 174° |
| 2026-04-23 15:20 | 49.46099 | 8.48088 | 1135 ft | 92 kts | 121° |
| 2026-04-23 15:21 | 49.45950 | 8.49068 | 1165 ft | 94 kts | 91° |
| 2026-04-23 15:21 | 49.45905 | 8.50055 | 1167 ft | 98 kts | 85° |
| 2026-04-23 15:21 | 49.45868 | 8.51097 | 1189 ft | 95 kts | 88° |
| 2026-04-23 15:21 | 49.45839 | 8.52142 | 1148 ft | 101 kts | 85° |
| 2026-04-23 15:22 | 49.45850 | 8.53195 | 1173 ft | 97 kts | 83° |
| 2026-04-23 15:22 | 49.45861 | 8.54200 | 1229 ft | 91 kts | 82° |
| 2026-04-23 15:22 | 49.45821 | 8.55158 | 1265 ft | 90 kts | 87° |
| 2026-04-23 15:22 | 49.45803 | 8.56133 | 1376 ft | 80 kts | 72° |
| 2026-04-23 15:23 | 49.46168 | 8.56606 | 1422 ft | 74 kts | 8° |
| 2026-04-23 15:23 | 49.46633 | 8.56552 | 1507 ft | 69 kts | 312° |
| 2026-04-23 15:23 | 49.46831 | 8.55671 | 1227 ft | 91 kts | 302° |
| 2026-04-23 15:23 | 49.47100 | 8.54821 | 1012 ft | 84 kts | 292° |
| 2026-04-23 15:24 | 49.47181 | 8.53919 | 734 ft | 85 kts | 279° |
| 2026-04-23 15:24 | 49.47216 | 8.53075 | 561 ft | 74 kts | 276° |
| 2026-04-23 15:24 | 49.47240 | 8.52321 | 397 ft | 67 kts | 276° |
| 2026-04-23 15:24 | 49.47258 | 8.51657 | 310 ft | 53 kts | 275° |
| 2026-04-23 15:25 | 49.47276 | 8.51272 | 309 ft | 41 kts | 285° |
| 2026-04-23 15:25 | 49.47286 | 8.50615 | 396 ft | 69 kts | 270° |
| 2026-04-23 15:25 | 49.47282 | 8.49870 | 559 ft | 70 kts | 272° |
| 2026-04-23 15:25 | 49.47264 | 8.49157 | 748 ft | 68 kts | 269° |
| 2026-04-23 15:26 | 49.47124 | 8.48509 | 930 ft | 73 kts | 199° |
| 2026-04-23 15:26 | 49.46516 | 8.48505 | 958 ft | 91 kts | 175° |
| 2026-04-23 15:26 | 49.45961 | 8.48746 | 1084 ft | 83 kts | 109° |
| 2026-04-23 15:26 | 49.45781 | 8.49646 | 1133 ft | 91 kts | 90° |
| 2026-04-23 15:27 | 49.45720 | 8.50614 | 1292 ft | 88 kts | 87° |
| 2026-04-23 15:27 | 49.45692 | 8.51476 | 1417 ft | 80 kts | 83° |
| 2026-04-23 15:27 | 49.45698 | 8.52311 | 1474 ft | 79 kts | 79° |
| 2026-04-23 15:27 | 49.45703 | 8.53179 | 1493 ft | 81 kts | 83° |
| 2026-04-23 15:28 | 49.45679 | 8.53989 | 1566 ft | 73 kts | 82° |
| 2026-04-23 15:28 | 49.45633 | 8.54830 | 1574 ft | 80 kts | 84° |
| 2026-04-23 15:28 | 49.45889 | 8.55298 | 1697 ft | 57 kts | 17° |
| 2026-04-23 15:28 | 49.46310 | 8.55483 | 1530 ft | 68 kts | 349° |
| 2026-04-23 15:29 | 49.46722 | 8.54967 | 1142 ft | 89 kts | 330° |
| 2026-04-23 15:29 | 49.47124 | 8.54270 | 845 ft | 89 kts | 292° |
| 2026-04-23 15:29 | 49.47180 | 8.53346 | 645 ft | 83 kts | 283° |
| 2026-04-23 15:29 | 49.47233 | 8.52456 | 443 ft | 83 kts | 277° |
| 2026-04-23 15:30 | 49.47262 | 8.51646 | 320 ft | 68 kts | 276° |
| 2026-04-23 15:30 | 49.47287 | 8.51048 | 309 ft | 54 kts | 268° |
| 2026-04-23 15:30 | 49.47301 | 8.50367 | 442 ft | 70 kts | 276° |
| 2026-04-23 15:30 | 49.47306 | 8.49614 | 669 ft | 70 kts | 268° |
| 2026-04-23 15:31 | 49.47239 | 8.48817 | 792 ft | 82 kts | 263° |
| 2026-04-23 15:31 | 49.46863 | 8.48376 | 974 ft | 86 kts | 163° |
| 2026-04-23 15:31 | 49.46247 | 8.48409 | 1053 ft | 86 kts | 174° |
| 2026-04-23 15:31 | 49.45926 | 8.49124 | 934 ft | 95 kts | 93° |
| 2026-04-23 15:32 | 49.45868 | 8.50103 | 1007 ft | 88 kts | 86° |
| 2026-04-23 15:32 | 49.45865 | 8.51039 | 1056 ft | 85 kts | 81° |
| 2026-04-23 15:32 | 49.45907 | 8.51949 | 1125 ft | 83 kts | 75° |
| 2026-04-23 15:32 | 49.45979 | 8.52842 | 1186 ft | 85 kts | 76° |
| 2026-04-23 15:33 | 49.46038 | 8.53768 | 1240 ft | 89 kts | 82° |
| 2026-04-23 15:33 | 49.46043 | 8.54718 | 1327 ft | 87 kts | 81° |
| 2026-04-23 15:33 | 49.46072 | 8.55673 | 1357 ft | 91 kts | 80° |
| 2026-04-23 15:33 | 49.46236 | 8.56463 | 1453 ft | 71 kts | 23° |
| 2026-04-23 15:34 | 49.46683 | 8.56375 | 1471 ft | 65 kts | 304° |
| 2026-04-23 15:34 | 49.46873 | 8.55570 | 1174 ft | 91 kts | 305° |
| 2026-04-23 15:34 | 49.47104 | 8.54701 | 969 ft | 90 kts | 279° |
| 2026-04-23 15:34 | 49.47181 | 8.53725 | 672 ft | 93 kts | 282° |
| 2026-04-23 15:35 | 49.47229 | 8.52801 | 490 ft | 79 kts | 275° |
| 2026-04-23 15:35 | 49.47247 | 8.52021 | 328 ft | 71 kts | 278° |
| 2026-04-23 15:35 | 49.47272 | 8.51398 | 310 ft | 43 kts | 276° |
| 2026-04-23 15:35 | 49.47285 | 8.51068 | 309 ft | 18 kts | 275° |
| 2026-04-23 15:36 | 49.47264 | 8.50954 | 309 ft | 5 kts | 170° |
| 2026-04-23 15:36 | 49.47247 | 8.50965 | 309 ft | 0 kts | 155° |
| 2026-04-23 15:36 | 49.47243 | 8.50967 | 309 ft | 4 kts | 153° |
| 2026-04-23 15:37 | 49.47231 | 8.51079 | 309 ft | 14 kts | 88° |
| 2026-04-23 15:37 | 49.47226 | 8.51264 | 309 ft | 17 kts | 93° |
| 2026-04-23 15:37 | 49.47218 | 8.51448 | 309 ft | 17 kts | 91° |
| 2026-04-23 15:37 | 49.47212 | 8.51636 | 310 ft | 17 kts | 94° |
| 2026-04-23 15:38 | 49.47206 | 8.51823 | 310 ft | 17 kts | 94° |
| 2026-04-23 15:38 | 49.47200 | 8.51998 | 310 ft | 14 kts | 95° |
| 2026-04-23 15:38 | 49.47207 | 8.52094 | 310 ft | 8 kts | 59° |
| 2026-04-23 15:38 | 49.47249 | 8.52146 | 310 ft | 7 kts | 13° |
| 2026-04-23 15:39 | 49.47295 | 8.52152 | 310 ft | 7 kts | 3° |
| 2026-04-23 15:39 | 49.47359 | 8.52160 | 310 ft | 11 kts | 5° |
| 2026-04-23 15:39 | 49.47448 | 8.52166 | 310 ft | 13 kts | 359° |
| 2026-04-23 15:39 | 49.47524 | 8.52171 | 310 ft | 8 kts | 349° |
| 2026-04-23 15:40 | 49.47534 | 8.52107 | 310 ft | 7 kts | 225° |
| 2026-04-23 15:40 | 49.47516 | 8.52092 | 310 ft | 0 kts | 166° |